If you wish to contribute or participate in the discussions about articles you are invited to join SKYbrary as a registered user

 Actions

Florianopolis/Hercílio Luz International Airport

From SKYbrary Wiki

SBFL
Airport
ICAO: SBFL – IATA: FLN
Summary
Name Florianopolis/Hercílio Luz International Airport
Region South America and Caribbean
Territory Brazil BR.gif
Location Carianos, Santa Catarina
Serving Florianopolis
Elevation 4.877 m
16 ft
16 ft4.877 m
Type large airport
Coordinates 27° 40' 13.76" S, 48° 32' 49.85" W
Runways
Designator Length Width Surface ROPS
14/32 2300 m7,545.932 ft
45 m147.638 ft
ASP yes/yes
3/21 1500 m4,921.26 ft
45 m147.638 ft
CON yes/yes


METAR
Observation SBFL 172300Z 36006KT 8000 VCSH BKN010 BKN030 22/21 Q1016
Station Florianopolis Aeroporto
Date/Time 17 October 2019 23:00:00
Wind direction 360°
Wind speed 06 kts
Lowest cloud amount broken clouds
Temperature 22°C
Dew point 21°C
Humidity 94%
QNH 1016 hPa
Weather condition n/a

Florianópolis-Hercílio Luz International Airport, is the airport serving Florianópolis, Brazil.

Climatology

Humid subtropical climate (Köppen climate classification Cfa)

Maps

Terrain

Loading map...

Airport Layout

Loading map...


Accidents & Serious Incidents at or in vicinity of SBFL

None on SKYbrary